createdAt,value
2022-08-08T00:00:59.782Z,16.10
2022-08-08T00:03:31.646Z,16.10
2022-08-08T00:06:28.361Z,16.10
2022-08-08T00:09:34.296Z,16.00
2022-08-08T00:12:10.252Z,16.00
2022-08-08T00:14:59.331Z,15.90
2022-08-08T00:17:58.646Z,15.90
2022-08-08T00:20:29.786Z,15.90
2022-08-08T00:23:06.043Z,15.90
2022-08-08T00:25:51.817Z,15.90
2022-08-08T00:28:34.188Z,15.70
2022-08-08T00:32:15.348Z,15.70
2022-08-08T00:34:37.954Z,15.60
2022-08-08T00:37:47.461Z,15.60
2022-08-08T00:41:12.460Z,15.50
2022-08-08T00:43:46.123Z,15.50
2022-08-08T00:47:13.949Z,15.40
2022-08-08T00:49:58.410Z,15.40
2022-08-08T00:52:51.430Z,15.40
2022-08-08T00:55:56.199Z,15.30
2022-08-08T00:59:04.714Z,15.30
2022-08-08T01:01:37.977Z,15.20
2022-08-08T01:04:43.104Z,15.20
2022-08-08T01:07:55.235Z,15.30
2022-08-08T01:10:56.833Z,15.30
2022-08-08T01:13:58.130Z,15.20
2022-08-08T01:16:37.502Z,15.10
2022-08-08T01:19:13.560Z,15.20
2022-08-08T01:22:10.251Z,15.10
2022-08-08T01:25:05.264Z,15.10
2022-08-08T01:28:02.124Z,15.10
2022-08-08T01:30:44.163Z,15.20
2022-08-08T01:34:00.021Z,15.10
2022-08-08T01:36:42.523Z,15.20
2022-08-08T01:39:59.917Z,15.20
2022-08-08T01:42:58.852Z,15.10
2022-08-08T01:46:03.264Z,15.10
2022-08-08T01:48:59.494Z,15.00
2022-08-08T01:52:55.474Z,15.00
2022-08-08T01:55:45.197Z,14.90
2022-08-08T01:58:12.287Z,14.80
2022-08-08T02:01:20.578Z,14.70
2022-08-08T02:04:17.008Z,14.70
2022-08-08T02:07:08.872Z,14.70
2022-08-08T02:10:04.239Z,14.60
2022-08-08T02:12:48.418Z,14.60
2022-08-08T02:15:27.416Z,14.60
2022-08-08T02:18:13.158Z,14.50
2022-08-08T02:21:13.213Z,14.50
2022-08-08T02:23:54.560Z,14.50
2022-08-08T02:26:26.625Z,14.40
2022-08-08T02:29:41.423Z,14.40
2022-08-08T02:32:57.966Z,14.30
2022-08-08T02:36:04.033Z,14.30
2022-08-08T02:38:37.724Z,14.30
2022-08-08T02:41:59.116Z,14.30
2022-08-08T02:44:57.826Z,14.30
2022-08-08T02:47:55.191Z,14.30
2022-08-08T02:50:47.333Z,14.30
2022-08-08T02:53:44.070Z,14.20
2022-08-08T02:56:23.208Z,14.20
2022-08-08T02:59:26.204Z,14.20
2022-08-08T03:02:20.247Z,14.20
2022-08-08T03:05:03.242Z,14.10
2022-08-08T03:08:13.777Z,14.10
2022-08-08T03:11:25.753Z,14.20
2022-08-08T03:15:59.705Z,14.10
2022-08-08T03:17:34.076Z,14.10
2022-08-08T03:20:08.247Z,14.00
2022-08-08T03:22:56.872Z,14.00
2022-08-08T03:25:36.193Z,13.90
2022-08-08T03:28:29.350Z,13.90
2022-08-08T03:31:13.699Z,13.90
2022-08-08T03:33:54.880Z,13.90
2022-08-08T03:36:30.190Z,13.80
2022-08-08T03:39:14.495Z,13.80
2022-08-08T03:42:27.057Z,13.70
2022-08-08T03:44:36.047Z,13.70
2022-08-08T03:47:14.129Z,13.70
2022-08-08T03:49:59.805Z,13.70
2022-08-08T03:52:30.889Z,13.60
2022-08-08T03:55:09.946Z,13.50
2022-08-08T03:58:31.128Z,13.60
2022-08-08T04:00:30.528Z,13.50
2022-08-08T04:03:02.108Z,13.60
2022-08-08T04:05:39.933Z,13.60
2022-08-08T04:08:33.346Z,13.60
2022-08-08T04:11:11.141Z,13.70
2022-08-08T04:14:04.298Z,13.70
2022-08-08T04:16:38.314Z,13.60
2022-08-08T04:19:23.613Z,13.60
2022-08-08T04:21:54.233Z,13.60
2022-08-08T04:24:29.596Z,13.60
2022-08-08T04:26:59.628Z,13.60
2022-08-08T04:29:33.305Z,13.70
2022-08-08T04:32:05.105Z,13.80
2022-08-08T04:34:42.928Z,13.80
2022-08-08T04:37:20.964Z,13.90
2022-08-08T04:40:05.816Z,14.10
2022-08-08T04:42:34.921Z,14.40
2022-08-08T04:45:04.978Z,14.80
2022-08-08T04:47:32.544Z,16.70
2022-08-08T04:50:06.033Z,16.50
2022-08-08T04:52:33.470Z,17.10
2022-08-08T04:55:01.747Z,19.10
2022-08-08T04:57:29.013Z,20.80
2022-08-08T04:59:58.064Z,21.40
2022-08-08T05:02:28.383Z,22.50
2022-08-08T05:04:55.793Z,23.10
2022-08-08T05:07:27.053Z,23.40
2022-08-08T05:10:06.767Z,23.00
2022-08-08T05:12:36.729Z,24.20
2022-08-08T05:15:13.752Z,24.90
2022-08-08T05:17:53.623Z,25.30
2022-08-08T05:20:21.696Z,25.30
2022-08-08T05:22:51.710Z,25.80
2022-08-08T05:25:21.372Z,26.70
2022-08-08T05:27:48.467Z,25.50
2022-08-08T05:30:15.352Z,24.90
2022-08-08T05:32:43.050Z,25.30
2022-08-08T05:35:13.456Z,25.50
2022-08-08T05:37:52.707Z,24.80
2022-08-08T05:40:27.660Z,25.10
2022-08-08T05:43:01.752Z,25.40
2022-08-08T05:45:42.796Z,26.00
2022-08-08T05:48:17.646Z,25.70
2022-08-08T05:50:59.018Z,26.30
2022-08-08T05:54:25.660Z,27.00
2022-08-08T05:56:28.642Z,26.10
2022-08-08T05:59:05.171Z,26.40
2022-08-08T06:01:56.497Z,27.20
2022-08-08T06:04:29.171Z,26.20
2022-08-08T06:07:00.209Z,25.40
2022-08-08T06:09:58.936Z,25.40
2022-08-08T06:12:30.183Z,26.30
2022-08-08T06:15:03.110Z,26.70
2022-08-08T06:17:51.093Z,26.30
2022-08-08T06:20:20.971Z,26.50
2022-08-08T06:22:49.522Z,28.70
2022-08-08T06:25:18.154Z,26.30
2022-08-08T06:27:53.952Z,27.00
2022-08-08T06:30:26.347Z,28.00
2022-08-08T06:33:00.883Z,27.70
2022-08-08T06:36:08.001Z,27.80
2022-08-08T06:38:28.838Z,28.60
2022-08-08T06:41:06.073Z,28.00
2022-08-08T06:43:37.061Z,27.60
2022-08-08T06:46:09.001Z,27.30
2022-08-08T06:48:36.501Z,27.90
2022-08-08T06:51:07.671Z,28.60
2022-08-08T06:53:38.951Z,28.70
2022-08-08T06:56:08.950Z,27.60
2022-08-08T06:58:37.089Z,28.60
2022-08-08T07:01:24.533Z,27.60
2022-08-08T07:04:37.385Z,28.60
2022-08-08T07:06:57.298Z,28.40
2022-08-08T07:09:41.944Z,28.90
2022-08-08T07:12:23.205Z,28.10
2022-08-08T07:15:23.074Z,28.20
2022-08-08T07:18:01.853Z,28.10
2022-08-08T07:20:35.135Z,27.80
2022-08-08T07:23:24.622Z,27.00
2022-08-08T07:25:54.721Z,28.20
2022-08-08T07:28:31.580Z,28.40
2022-08-08T07:30:59.570Z,28.50
2022-08-08T07:33:27.266Z,28.70
2022-08-08T07:36:08.345Z,28.10
2022-08-08T07:38:37.406Z,26.30
2022-08-08T07:41:06.426Z,26.70
2022-08-08T07:43:38.025Z,26.20
2022-08-08T07:46:23.332Z,27.40
2022-08-08T07:48:52.894Z,26.10
2022-08-08T07:51:24.309Z,25.80
2022-08-08T07:54:39.371Z,26.60
2022-08-08T07:57:48.554Z,26.70
2022-08-08T08:00:17.391Z,25.70
2022-08-08T08:03:04.336Z,25.90
2022-08-08T08:05:36.494Z,24.20
2022-08-08T08:08:27.818Z,23.30
2022-08-08T08:10:59.511Z,22.00
2022-08-08T08:13:42.579Z,21.10
2022-08-08T08:16:32.056Z,21.00
2022-08-08T08:19:02.122Z,21.10
2022-08-08T08:21:44.325Z,21.30
2022-08-08T08:24:18.502Z,20.50
2022-08-08T08:26:47.153Z,20.20
2022-08-08T08:29:20.069Z,20.10
2022-08-08T08:31:54.053Z,20.10
2022-08-08T08:34:32.486Z,20.30
2022-08-08T08:37:03.358Z,20.20
2022-08-08T08:39:59.481Z,20.10
2022-08-08T08:42:29.259Z,20.10
2022-08-08T08:45:20.796Z,20.30
2022-08-08T08:47:53.533Z,20.50
2022-08-08T08:50:33.389Z,20.40
2022-08-08T08:53:28.135Z,20.40
2022-08-08T08:55:54.106Z,20.50
2022-08-08T08:58:33.938Z,20.70
2022-08-08T09:01:08.486Z,20.90
2022-08-08T09:03:47.132Z,20.70
2022-08-08T09:06:36.309Z,20.80
2022-08-08T09:09:18.783Z,20.90
2022-08-08T09:12:02.031Z,21.10
2022-08-08T09:14:35.600Z,21.00
2022-08-08T09:17:17.351Z,21.10
2022-08-08T09:21:59.700Z,21.30
2022-08-08T09:22:35.655Z,21.40
2022-08-08T09:25:04.189Z,21.80
2022-08-08T09:27:55.811Z,22.00
2022-08-08T09:30:22.165Z,22.20
2022-08-08T09:33:12.509Z,21.90
2022-08-08T09:35:50.246Z,22.20
2022-08-08T09:38:52.773Z,22.00
2022-08-08T09:41:33.670Z,22.30
2022-08-08T09:44:34.450Z,22.50
2022-08-08T09:47:25.415Z,22.20
2022-08-08T09:50:01.392Z,22.00
2022-08-08T09:52:56.187Z,22.00
2022-08-08T09:55:31.659Z,22.10
2022-08-08T09:58:20.215Z,22.20
2022-08-08T10:00:57.641Z,22.10
2022-08-08T10:03:31.530Z,21.90
2022-08-08T10:05:59.429Z,22.20
2022-08-08T10:08:29.097Z,22.20
2022-08-08T10:11:01.490Z,22.30
2022-08-08T10:13:42.142Z,22.40
2022-08-08T10:16:09.925Z,22.70
2022-08-08T10:18:37.274Z,23.30
2022-08-08T10:21:24.921Z,23.90
2022-08-08T10:24:12.239Z,24.40
2022-08-08T10:27:13.230Z,24.40
2022-08-08T10:29:59.464Z,24.70
2022-08-08T10:32:40.378Z,24.70
2022-08-08T10:35:20.358Z,24.40
2022-08-08T10:38:08.166Z,23.80
2022-08-08T10:40:38.478Z,24.20
2022-08-08T10:43:06.605Z,24.80
2022-08-08T10:45:56.108Z,24.80
2022-08-08T10:48:35.902Z,24.80
2022-08-08T10:51:13.321Z,25.00
2022-08-08T10:53:58.909Z,24.70
2022-08-08T10:56:35.149Z,24.70
2022-08-08T10:59:09.371Z,25.00
2022-08-08T11:01:41.772Z,24.90
2022-08-08T11:04:10.585Z,24.50
2022-08-08T11:06:41.821Z,24.10
2022-08-08T11:09:21.218Z,24.20
2022-08-08T11:12:04.538Z,24.10
2022-08-08T11:14:59.921Z,24.70
2022-08-08T11:18:00.687Z,24.50
2022-08-08T11:20:27.644Z,24.60
2022-08-08T11:22:59.940Z,24.70
2022-08-08T11:25:53.511Z,24.40
2022-08-08T11:28:29.041Z,24.00
2022-08-08T11:31:00.536Z,23.90
2022-08-08T11:33:51.977Z,23.60
2022-08-08T11:36:15.885Z,23.70
2022-08-08T11:38:54.047Z,23.60
2022-08-08T11:41:28.219Z,23.80
2022-08-08T11:44:00.966Z,23.60
2022-08-08T11:46:30.477Z,23.70
2022-08-08T11:49:00.165Z,23.50
2022-08-08T11:51:29.585Z,23.60
2022-08-08T11:54:09.751Z,24.10
2022-08-08T11:56:55.962Z,23.70
2022-08-08T12:00:01.603Z,23.70
2022-08-08T12:02:35.439Z,23.60
2022-08-08T12:05:08.202Z,23.40
2022-08-08T12:07:55.986Z,23.60
2022-08-08T12:10:30.350Z,23.90
2022-08-08T12:13:09.647Z,23.40
2022-08-08T12:15:41.975Z,23.30
2022-08-08T12:18:28.563Z,23.60
2022-08-08T12:20:58.759Z,23.40
2022-08-08T12:23:43.752Z,23.60
2022-08-08T12:26:28.425Z,23.70
2022-08-08T12:29:21.789Z,23.80
2022-08-08T12:32:09.323Z,24.10
2022-08-08T12:34:50.719Z,24.30
2022-08-08T12:37:41.011Z,24.30
2022-08-08T12:40:23.066Z,24.30
2022-08-08T12:42:52.658Z,24.30
2022-08-08T12:45:57.959Z,24.10
2022-08-08T12:48:37.627Z,24.40
2022-08-08T12:51:07.900Z,24.10
2022-08-08T12:53:59.788Z,24.10
2022-08-08T12:56:53.784Z,24.10
2022-08-08T12:59:36.826Z,24.10
2022-08-08T13:02:20.655Z,24.20
2022-08-08T13:04:51.200Z,24.20
2022-08-08T13:08:03.602Z,23.90
2022-08-08T13:10:13.951Z,24.30
2022-08-08T13:12:48.688Z,24.20
2022-08-08T13:15:17.305Z,24.40
2022-08-08T13:18:07.723Z,24.20
2022-08-08T13:20:33.936Z,24.30
2022-08-08T13:23:31.289Z,24.30
2022-08-08T13:25:50.411Z,24.60
2022-08-08T13:28:32.199Z,24.40
2022-08-08T13:31:01.625Z,24.20
2022-08-08T13:33:41.915Z,24.40
2022-08-08T13:36:10.930Z,24.40
2022-08-08T13:38:38.525Z,24.30
2022-08-08T13:41:07.501Z,24.30
2022-08-08T13:43:49.682Z,24.30
2022-08-08T13:46:26.399Z,24.50
2022-08-08T13:49:11.178Z,24.70
2022-08-08T13:52:12.058Z,24.60
2022-08-08T13:54:50.452Z,24.60
2022-08-08T13:58:06.722Z,24.80
2022-08-08T14:00:10.861Z,25.00
2022-08-08T14:02:38.978Z,24.80
2022-08-08T14:05:22.250Z,24.70
2022-08-08T14:07:59.474Z,24.30
2022-08-08T14:10:33.174Z,24.60
2022-08-08T14:13:20.769Z,24.70
2022-08-08T14:16:16.318Z,24.50
2022-08-08T14:19:00.945Z,24.70
2022-08-08T14:21:49.089Z,24.70
2022-08-08T14:24:32.802Z,25.20
2022-08-08T14:26:59.657Z,24.90
2022-08-08T14:29:30.808Z,24.80
2022-08-08T14:32:09.275Z,24.60
2022-08-08T14:34:42.507Z,25.00
2022-08-08T14:37:12.716Z,24.80
2022-08-08T14:40:05.892Z,24.40
2022-08-08T14:42:47.409Z,24.20
2022-08-08T14:45:33.671Z,24.00
2022-08-08T14:48:12.063Z,24.20
2022-08-08T14:50:43.276Z,24.50
2022-08-08T14:53:15.320Z,24.10
2022-08-08T14:55:43.281Z,24.10
2022-08-08T14:58:16.749Z,24.20
2022-08-08T15:00:48.541Z,24.50
2022-08-08T15:03:17.037Z,24.60
2022-08-08T15:05:54.246Z,24.40
2022-08-08T15:08:34.936Z,24.30
2022-08-08T15:11:09.335Z,24.00
2022-08-08T15:13:57.932Z,24.30
2022-08-08T15:16:28.265Z,24.20
2022-08-08T15:18:55.603Z,24.20
2022-08-08T15:21:22.474Z,24.50
2022-08-08T15:23:54.470Z,24.70
2022-08-08T15:26:21.410Z,24.50
2022-08-08T15:28:54.354Z,24.20
2022-08-08T15:31:55.491Z,24.30
2022-08-08T15:34:29.431Z,24.30
2022-08-08T15:36:57.150Z,24.20
2022-08-08T15:39:24.032Z,24.20
2022-08-08T15:41:52.800Z,24.40
2022-08-08T15:44:21.039Z,24.30
2022-08-08T15:46:50.777Z,24.20
2022-08-08T15:49:21.119Z,24.10
2022-08-08T15:51:50.419Z,24.20
2022-08-08T15:54:38.436Z,24.10
2022-08-08T15:57:08.965Z,23.90
2022-08-08T16:00:06.046Z,24.10
2022-08-08T16:02:31.176Z,24.10
2022-08-08T16:05:00.378Z,23.90
2022-08-08T16:07:52.097Z,23.70
2022-08-08T16:13:11.186Z,23.70
2022-08-08T16:13:32.015Z,23.90
2022-08-08T16:15:57.228Z,23.70
2022-08-08T16:18:29.605Z,23.60
2022-08-08T16:20:59.899Z,23.70
2022-08-08T16:23:32.669Z,23.80
2022-08-08T16:26:17.504Z,23.60
2022-08-08T16:28:49.904Z,23.70
2022-08-08T16:31:16.854Z,23.80
2022-08-08T16:33:50.990Z,23.60
2022-08-08T16:36:33.559Z,23.60
2022-08-08T16:39:17.071Z,23.90
2022-08-08T16:41:50.349Z,23.70
2022-08-08T16:44:28.143Z,23.60
2022-08-08T16:47:42.177Z,23.60
2022-08-08T16:50:13.622Z,23.60
2022-08-08T16:55:04.091Z,23.70
2022-08-08T16:55:55.594Z,23.60
2022-08-08T16:58:22.276Z,23.70
2022-08-08T17:00:52.951Z,23.50
2022-08-08T17:03:25.068Z,23.60
2022-08-08T17:06:35.388Z,23.60
2022-08-08T17:08:55.379Z,23.50
2022-08-08T17:11:28.322Z,23.50
2022-08-08T17:14:17.759Z,23.40
2022-08-08T17:16:57.499Z,23.40
2022-08-08T17:19:29.647Z,23.40
2022-08-08T17:21:57.875Z,23.30
2022-08-08T17:24:30.214Z,23.20
2022-08-08T17:26:58.848Z,23.20
2022-08-08T17:29:33.843Z,23.20
2022-08-08T17:32:01.986Z,23.20
2022-08-08T17:34:53.452Z,23.10
2022-08-08T17:37:16.234Z,23.00
2022-08-08T17:40:05.948Z,23.00
2022-08-08T17:42:33.037Z,23.10
2022-08-08T17:45:00.258Z,23.00
2022-08-08T17:47:40.565Z,23.00
2022-08-08T17:50:09.679Z,22.90
2022-08-08T17:52:38.054Z,22.90
2022-08-08T17:55:22.432Z,22.90
2022-08-08T17:57:53.593Z,22.80
2022-08-08T18:00:25.847Z,22.70
2022-08-08T18:03:07.488Z,22.70
2022-08-08T18:05:49.483Z,22.60
2022-08-08T18:08:24.690Z,22.60
2022-08-08T18:11:11.614Z,22.60
2022-08-08T18:13:42.106Z,22.50
2022-08-08T18:16:09.711Z,22.40
2022-08-08T18:18:42.468Z,22.30
2022-08-08T18:21:10.585Z,22.30
2022-08-08T18:23:55.787Z,22.20
2022-08-08T18:26:23.272Z,22.10
2022-08-08T18:28:54.646Z,22.10
2022-08-08T18:31:22.344Z,22.00
2022-08-08T18:34:18.824Z,21.90
2022-08-08T18:36:37.475Z,21.90
2022-08-08T18:39:06.103Z,21.90
2022-08-08T18:41:51.294Z,21.80
2022-08-08T18:44:19.941Z,21.70
2022-08-08T18:46:55.555Z,21.60
2022-08-08T18:49:32.367Z,21.60
2022-08-08T18:52:18.177Z,21.60
2022-08-08T18:54:45.744Z,21.50
2022-08-08T18:57:32.026Z,21.50
2022-08-08T19:00:15.480Z,21.40
2022-08-08T19:02:48.333Z,21.30
2022-08-08T19:05:24.562Z,21.20
2022-08-08T19:07:59.506Z,21.10
2022-08-08T19:10:27.200Z,21.10
2022-08-08T19:12:54.218Z,21.00
2022-08-08T19:15:25.981Z,21.00
2022-08-08T19:18:31.934Z,20.90
2022-08-08T19:20:43.092Z,20.80
2022-08-08T19:23:13.954Z,20.70
2022-08-08T19:26:26.958Z,20.70
2022-08-08T19:28:30.869Z,20.80
2022-08-08T19:31:03.831Z,20.60
2022-08-08T19:33:51.737Z,20.60
2022-08-08T19:36:25.312Z,20.60
2022-08-08T19:38:55.458Z,20.50
2022-08-08T19:41:26.329Z,20.40
2022-08-08T19:44:03.603Z,20.30
2022-08-08T19:46:33.308Z,20.20
2022-08-08T19:49:01.393Z,20.20
2022-08-08T19:51:34.893Z,20.10
2022-08-08T19:54:06.976Z,20.10
2022-08-08T19:56:39.947Z,20.00
2022-08-08T19:59:09.033Z,20.00
2022-08-08T20:02:01.261Z,19.90
2022-08-08T20:04:24.026Z,19.90
2022-08-08T20:06:51.154Z,19.90
2022-08-08T20:09:22.876Z,19.80
2022-08-08T20:11:52.065Z,19.80
2022-08-08T20:14:35.621Z,19.80
2022-08-08T20:17:07.133Z,19.70
2022-08-08T20:19:42.116Z,19.70
2022-08-08T20:22:20.970Z,19.70
2022-08-08T20:24:57.414Z,19.60
2022-08-08T20:27:32.959Z,19.60
2022-08-08T20:30:53.178Z,19.50
2022-08-08T20:33:01.644Z,19.40
2022-08-08T20:35:32.725Z,19.40
2022-08-08T20:38:15.503Z,19.30
2022-08-08T20:40:50.128Z,19.20
2022-08-08T20:43:23.043Z,19.20
2022-08-08T20:46:06.868Z,19.20
2022-08-08T20:48:36.929Z,19.10
2022-08-08T20:51:05.610Z,19.10
2022-08-08T20:54:00.176Z,19.10
2022-08-08T20:56:35.540Z,19.00
2022-08-08T20:59:08.780Z,19.00
2022-08-08T21:02:06.822Z,18.90
2022-08-08T21:04:27.717Z,18.90
2022-08-08T21:06:55.066Z,18.90
2022-08-08T21:09:22.148Z,18.80
2022-08-08T21:16:06.145Z,18.60
2022-08-08T21:18:24.722Z,18.50
2022-08-08T21:20:54.776Z,18.50
2022-08-08T21:23:25.086Z,18.40
2022-08-08T21:26:09.347Z,18.40
2022-08-08T21:28:38.045Z,18.40
2022-08-08T21:31:22.765Z,18.40
2022-08-08T21:33:53.644Z,18.40
2022-08-08T21:36:28.706Z,18.30
2022-08-08T21:38:56.892Z,18.30
2022-08-08T21:41:38.671Z,18.20
2022-08-08T21:44:11.968Z,18.10
2022-08-08T21:48:00.947Z,18.10
2022-08-08T21:49:29.179Z,18.10
2022-08-08T21:54:31.636Z,18.00
2022-08-08T21:54:54.786Z,18.00
2022-08-08T21:57:29.216Z,17.90
2022-08-08T22:00:12.391Z,17.90
2022-08-08T22:02:42.676Z,18.00
2022-08-08T22:09:00.427Z,17.90
2022-08-08T22:11:56.523Z,17.90
2022-08-08T22:14:17.302Z,17.80
2022-08-08T22:16:44.616Z,17.80
2022-08-08T22:19:16.311Z,17.80
2022-08-08T22:21:43.384Z,17.80
2022-08-08T22:24:12.376Z,17.80
2022-08-08T22:27:01.488Z,17.70
2022-08-08T22:30:01.401Z,17.70
2022-08-08T22:32:12.968Z,17.70
2022-08-08T22:34:40.235Z,17.60
2022-08-08T22:37:14.921Z,17.60
2022-08-08T22:40:01.407Z,17.60
2022-08-08T22:42:31.861Z,17.50
2022-08-08T22:45:01.793Z,17.50
2022-08-08T22:47:37.864Z,17.50
2022-08-08T22:50:21.579Z,17.50
2022-08-08T22:54:19.641Z,17.50
2022-08-08T22:55:58.292Z,17.50
2022-08-08T22:58:28.820Z,17.40
2022-08-08T23:00:58.218Z,17.40
2022-08-08T23:03:34.337Z,17.40
2022-08-08T23:06:15.762Z,17.30
2022-08-08T23:08:54.420Z,17.30
2022-08-08T23:12:17.318Z,17.30
2022-08-08T23:14:11.866Z,17.30
2022-08-08T23:16:43.796Z,17.30
2022-08-08T23:19:11.596Z,17.20
2022-08-08T23:21:39.108Z,17.20
2022-08-08T23:24:06.986Z,17.20
2022-08-08T23:26:34.484Z,17.10
2022-08-08T23:29:01.967Z,17.10
2022-08-08T23:31:28.961Z,17.00
2022-08-08T23:34:17.326Z,17.00
2022-08-08T23:36:42.587Z,17.00
2022-08-08T23:39:09.576Z,16.90
2022-08-08T23:41:45.973Z,17.00
2022-08-08T23:44:18.735Z,16.90
2022-08-08T23:49:07.770Z,16.80
2022-08-08T23:49:37.556Z,16.80
2022-08-08T23:52:08.184Z,16.80
2022-08-08T23:54:43.518Z,16.80
2022-08-08T23:57:38.591Z,16.70
